sensor_id;sensor_type;location;lat;lon;timestamp;temperature;humidity
18392;DHT22;9322;50.932;5.318;2023-08-21T00:01:41;21.20;1.40
18392;DHT22;9322;50.932;5.318;2023-08-21T00:04:07;21.10;1.40
18392;DHT22;9322;50.932;5.318;2023-08-21T00:06:32;21.10;1.40
18392;DHT22;9322;50.932;5.318;2023-08-21T00:08:59;21.10;1.40
18392;DHT22;9322;50.932;5.318;2023-08-21T00:11:25;21.10;1.40
18392;DHT22;9322;50.932;5.318;2023-08-21T00:13:50;21.10;1.40
18392;DHT22;9322;50.932;5.318;2023-08-21T00:16:17;20.90;1.40
18392;DHT22;9322;50.932;5.318;2023-08-21T00:18:43;20.90;1.40
18392;DHT22;9322;50.932;5.318;2023-08-21T00:21:08;20.90;1.40
18392;DHT22;9322;50.932;5.318;2023-08-21T00:23:34;20.90;1.40
18392;DHT22;9322;50.932;5.318;2023-08-21T00:26:01;20.90;1.40
18392;DHT22;9322;50.932;5.318;2023-08-21T00:28:26;20.80;1.40
18392;DHT22;9322;50.932;5.318;2023-08-21T00:31:05;20.80;1.40
18392;DHT22;9322;50.932;5.318;2023-08-21T00:33:31;20.80;1.40
18392;DHT22;9322;50.932;5.318;2023-08-21T00:35:57;20.80;1.40
18392;DHT22;9322;50.932;5.318;2023-08-21T00:38:23;20.70;1.40
18392;DHT22;9322;50.932;5.318;2023-08-21T00:40:50;20.60;1.40
18392;DHT22;9322;50.932;5.318;2023-08-21T00:43:15;20.50;1.40
18392;DHT22;9322;50.932;5.318;2023-08-21T00:45:43;20.60;1.40
18392;DHT22;9322;50.932;5.318;2023-08-21T00:48:10;20.60;1.40
18392;DHT22;9322;50.932;5.318;2023-08-21T00:50:36;20.50;1.40
18392;DHT22;9322;50.932;5.318;2023-08-21T00:53:02;20.40;1.40
18392;DHT22;9322;50.932;5.318;2023-08-21T00:55:32;20.40;1.40
18392;DHT22;9322;50.932;5.318;2023-08-21T00:57:58;20.30;1.40
18392;DHT22;9322;50.932;5.318;2023-08-21T01:00:25;20.30;1.40
18392;DHT22;9322;50.932;5.318;2023-08-21T01:02:51;20.40;1.40
18392;DHT22;9322;50.932;5.318;2023-08-21T01:05:18;20.30;1.40
18392;DHT22;9322;50.932;5.318;2023-08-21T01:07:59;20.20;1.40
18392;DHT22;9322;50.932;5.318;2023-08-21T01:10:53;20.10;1.40
18392;DHT22;9322;50.932;5.318;2023-08-21T01:16:09;20.00;1.40
18392;DHT22;9322;50.932;5.318;2023-08-21T01:18:35;19.90;1.40
18392;DHT22;9322;50.932;5.318;2023-08-21T01:21:04;19.90;1.40
18392;DHT22;9322;50.932;5.318;2023-08-21T01:23:34;19.90;1.40
18392;DHT22;9322;50.932;5.318;2023-08-21T01:26:00;19.80;1.40
18392;DHT22;9322;50.932;5.318;2023-08-21T01:28:26;19.80;1.40
18392;DHT22;9322;50.932;5.318;2023-08-21T01:31:02;19.90;1.40
18392;DHT22;9322;50.932;5.318;2023-08-21T01:33:30;20.00;1.40
18392;DHT22;9322;50.932;5.318;2023-08-21T01:35:59;20.00;1.40
18392;DHT22;9322;50.932;5.318;2023-08-21T01:38:31;20.00;1.40
18392;DHT22;9322;50.932;5.318;2023-08-21T01:40:57;20.00;1.40
18392;DHT22;9322;50.932;5.318;2023-08-21T01:43:24;20.00;1.40
18392;DHT22;9322;50.932;5.318;2023-08-21T01:45:49;20.00;1.40
18392;DHT22;9322;50.932;5.318;2023-08-21T01:48:15;20.00;1.40
18392;DHT22;9322;50.932;5.318;2023-08-21T01:50:41;20.00;1.40
18392;DHT22;9322;50.932;5.318;2023-08-21T01:53:06;20.00;1.40
18392;DHT22;9322;50.932;5.318;2023-08-21T01:55:32;19.90;1.40
18392;DHT22;9322;50.932;5.318;2023-08-21T01:57:57;19.90;1.40
18392;DHT22;9322;50.932;5.318;2023-08-21T02:00:23;19.90;1.40
18392;DHT22;9322;50.932;5.318;2023-08-21T02:02:49;19.90;1.40
18392;DHT22;9322;50.932;5.318;2023-08-21T02:05:14;19.90;1.40
18392;DHT22;9322;50.932;5.318;2023-08-21T02:07:40;19.90;1.40
18392;DHT22;9322;50.932;5.318;2023-08-21T02:10:06;19.80;1.40
18392;DHT22;9322;50.932;5.318;2023-08-21T02:12:32;19.80;1.40
18392;DHT22;9322;50.932;5.318;2023-08-21T02:14:57;19.90;1.40
18392;DHT22;9322;50.932;5.318;2023-08-21T02:17:26;19.90;1.40
18392;DHT22;9322;50.932;5.318;2023-08-21T02:19:51;19.90;1.40
18392;DHT22;9322;50.932;5.318;2023-08-21T02:22:17;19.90;1.40
18392;DHT22;9322;50.932;5.318;2023-08-21T02:24:42;19.90;1.40
18392;DHT22;9322;50.932;5.318;2023-08-21T02:27:08;19.70;1.40
18392;DHT22;9322;50.932;5.318;2023-08-21T02:29:34;19.60;1.40
18392;DHT22;9322;50.932;5.318;2023-08-21T02:31:59;19.50;1.40
18392;DHT22;9322;50.932;5.318;2023-08-21T02:34:25;19.40;1.40
18392;DHT22;9322;50.932;5.318;2023-08-21T02:36:52;19.40;1.40
18392;DHT22;9322;50.932;5.318;2023-08-21T02:39:17;19.30;1.40
18392;DHT22;9322;50.932;5.318;2023-08-21T02:41:43;19.20;1.40
18392;DHT22;9322;50.932;5.318;2023-08-21T02:44:09;19.20;1.40
18392;DHT22;9322;50.932;5.318;2023-08-21T02:46:34;19.10;1.40
18392;DHT22;9322;50.932;5.318;2023-08-21T02:49:02;19.00;1.40
18392;DHT22;9322;50.932;5.318;2023-08-21T02:51:27;18.90;1.40
18392;DHT22;9322;50.932;5.318;2023-08-21T02:53:53;18.80;1.40
18392;DHT22;9322;50.932;5.318;2023-08-21T02:56:19;18.80;1.40
18392;DHT22;9322;50.932;5.318;2023-08-21T02:58:45;18.70;1.40
18392;DHT22;9322;50.932;5.318;2023-08-21T03:01:10;18.70;1.40
18392;DHT22;9322;50.932;5.318;2023-08-21T03:03:37;18.70;1.40
18392;DHT22;9322;50.932;5.318;2023-08-21T03:06:03;18.70;1.40
18392;DHT22;9322;50.932;5.318;2023-08-21T03:08:28;18.60;1.40
18392;DHT22;9322;50.932;5.318;2023-08-21T03:10:54;18.60;1.40
18392;DHT22;9322;50.932;5.318;2023-08-21T03:13:19;18.50;1.40
18392;DHT22;9322;50.932;5.318;2023-08-21T03:15:45;18.60;1.40
18392;DHT22;9322;50.932;5.318;2023-08-21T03:18:11;18.50;1.40
18392;DHT22;9322;50.932;5.318;2023-08-21T03:20:36;18.50;1.40
18392;DHT22;9322;50.932;5.318;2023-08-21T03:23:02;18.60;1.40
18392;DHT22;9322;50.932;5.318;2023-08-21T03:25:28;18.60;1.40
18392;DHT22;9322;50.932;5.318;2023-08-21T03:27:54;18.60;1.40
18392;DHT22;9322;50.932;5.318;2023-08-21T03:30:19;18.60;1.40
18392;DHT22;9322;50.932;5.318;2023-08-21T03:32:45;18.60;1.40
18392;DHT22;9322;50.932;5.318;2023-08-21T03:35:12;18.50;1.40
18392;DHT22;9322;50.932;5.318;2023-08-21T03:37:37;18.40;1.40
18392;DHT22;9322;50.932;5.318;2023-08-21T03:40:03;18.40;1.40
18392;DHT22;9322;50.932;5.318;2023-08-21T03:42:29;18.40;1.40
18392;DHT22;9322;50.932;5.318;2023-08-21T03:44:55;18.40;1.40
18392;DHT22;9322;50.932;5.318;2023-08-21T03:47:20;18.40;1.40
18392;DHT22;9322;50.932;5.318;2023-08-21T03:49:46;18.40;1.40
18392;DHT22;9322;50.932;5.318;2023-08-21T03:52:13;18.40;1.40
18392;DHT22;9322;50.932;5.318;2023-08-21T03:54:39;18.30;1.40
18392;DHT22;9322;50.932;5.318;2023-08-21T03:57:05;18.30;1.40
18392;DHT22;9322;50.932;5.318;2023-08-21T03:59:31;18.30;1.40
18392;DHT22;9322;50.932;5.318;2023-08-21T04:01:56;18.20;1.40
18392;DHT22;9322;50.932;5.318;2023-08-21T04:04:22;18.30;1.40
18392;DHT22;9322;50.932;5.318;2023-08-21T04:06:48;18.30;1.40
18392;DHT22;9322;50.932;5.318;2023-08-21T04:09:13;18.20;1.40
18392;DHT22;9322;50.932;5.318;2023-08-21T04:11:39;18.20;1.40
18392;DHT22;9322;50.932;5.318;2023-08-21T04:14:05;18.10;1.40
18392;DHT22;9322;50.932;5.318;2023-08-21T04:16:30;18.00;1.40
18392;DHT22;9322;50.932;5.318;2023-08-21T04:18:56;18.00;1.40
18392;DHT22;9322;50.932;5.318;2023-08-21T04:21:22;18.00;1.40
18392;DHT22;9322;50.932;5.318;2023-08-21T04:23:48;18.00;1.40
18392;DHT22;9322;50.932;5.318;2023-08-21T04:26:14;18.00;1.40
18392;DHT22;9322;50.932;5.318;2023-08-21T04:28:40;18.00;1.40
18392;DHT22;9322;50.932;5.318;2023-08-21T04:31:06;18.00;1.40
18392;DHT22;9322;50.932;5.318;2023-08-21T04:33:32;18.00;1.40
18392;DHT22;9322;50.932;5.318;2023-08-21T04:35:58;18.00;1.40
18392;DHT22;9322;50.932;5.318;2023-08-21T04:38:24;18.00;1.40
18392;DHT22;9322;50.932;5.318;2023-08-21T04:40:50;18.00;1.40
18392;DHT22;9322;50.932;5.318;2023-08-21T04:43:16;18.00;1.40
18392;DHT22;9322;50.932;5.318;2023-08-21T04:45:51;18.00;1.40
18392;DHT22;9322;50.932;5.318;2023-08-21T04:48:20;18.00;1.40
18392;DHT22;9322;50.932;5.318;2023-08-21T04:50:46;18.00;1.40
18392;DHT22;9322;50.932;5.318;2023-08-21T04:53:12;18.00;1.40
18392;DHT22;9322;50.932;5.318;2023-08-21T04:55:40;18.00;1.40
18392;DHT22;9322;50.932;5.318;2023-08-21T04:58:06;18.10;1.40
18392;DHT22;9322;50.932;5.318;2023-08-21T05:00:32;18.10;1.40
18392;DHT22;9322;50.932;5.318;2023-08-21T05:02:58;18.20;1.40
18392;DHT22;9322;50.932;5.318;2023-08-21T05:05:24;18.30;1.40
18392;DHT22;9322;50.932;5.318;2023-08-21T05:07:49;18.30;1.40
18392;DHT22;9322;50.932;5.318;2023-08-21T05:10:15;18.40;1.40
18392;DHT22;9322;50.932;5.318;2023-08-21T05:12:41;18.40;1.40
18392;DHT22;9322;50.932;5.318;2023-08-21T05:15:07;18.50;1.40
18392;DHT22;9322;50.932;5.318;2023-08-21T05:17:33;18.60;1.40
18392;DHT22;9322;50.932;5.318;2023-08-21T05:19:58;18.70;1.40
18392;DHT22;9322;50.932;5.318;2023-08-21T05:22:24;18.80;1.40
18392;DHT22;9322;50.932;5.318;2023-08-21T05:24:49;19.00;1.40
18392;DHT22;9322;50.932;5.318;2023-08-21T05:27:15;19.10;1.40
18392;DHT22;9322;50.932;5.318;2023-08-21T05:29:41;19.20;1.40
18392;DHT22;9322;50.932;5.318;2023-08-21T05:32:06;19.70;1.40
18392;DHT22;9322;50.932;5.318;2023-08-21T05:34:32;20.50;1.40
18392;DHT22;9322;50.932;5.318;2023-08-21T05:36:58;21.50;1.40
18392;DHT22;9322;50.932;5.318;2023-08-21T05:39:23;22.40;1.40
18392;DHT22;9322;50.932;5.318;2023-08-21T05:41:49;23.40;1.40
18392;DHT22;9322;50.932;5.318;2023-08-21T05:44:15;24.20;1.40
18392;DHT22;9322;50.932;5.318;2023-08-21T05:46:40;24.80;1.40
18392;DHT22;9322;50.932;5.318;2023-08-21T05:49:06;25.50;1.40
18392;DHT22;9322;50.932;5.318;2023-08-21T05:51:32;26.00;1.40
18392;DHT22;9322;50.932;5.318;2023-08-21T05:53:57;26.20;1.40
18392;DHT22;9322;50.932;5.318;2023-08-21T05:56:23;26.70;1.40
18392;DHT22;9322;50.932;5.318;2023-08-21T05:58:49;26.40;1.40
18392;DHT22;9322;50.932;5.318;2023-08-21T06:01:15;27.20;1.40
18392;DHT22;9322;50.932;5.318;2023-08-21T06:03:40;27.70;1.40
18392;DHT22;9322;50.932;5.318;2023-08-21T06:06:06;28.30;1.40
18392;DHT22;9322;50.932;5.318;2023-08-21T06:08:31;28.90;1.40
18392;DHT22;9322;50.932;5.318;2023-08-21T06:10:57;28.80;1.40
18392;DHT22;9322;50.932;5.318;2023-08-21T06:13:24;28.20;1.40
18392;DHT22;9322;50.932;5.318;2023-08-21T06:15:50;28.90;1.40
18392;DHT22;9322;50.932;5.318;2023-08-21T06:18:16;29.30;1.40
18392;DHT22;9322;50.932;5.318;2023-08-21T06:20:43;28.60;1.40
18392;DHT22;9322;50.932;5.318;2023-08-21T06:23:12;28.40;1.40
18392;DHT22;9322;50.932;5.318;2023-08-21T06:25:38;29.10;1.40
18392;DHT22;9322;50.932;5.318;2023-08-21T06:28:04;29.50;1.40
18392;DHT22;9322;50.932;5.318;2023-08-21T06:30:30;29.10;1.40
18392;DHT22;9322;50.932;5.318;2023-08-21T06:32:55;28.50;1.40
18392;DHT22;9322;50.932;5.318;2023-08-21T06:35:21;28.90;1.40
18392;DHT22;9322;50.932;5.318;2023-08-21T06:37:47;28.60;1.40
18392;DHT22;9322;50.932;5.318;2023-08-21T06:40:13;28.50;1.40
18392;DHT22;9322;50.932;5.318;2023-08-21T06:42:38;28.80;1.40
18392;DHT22;9322;50.932;5.318;2023-08-21T06:45:05;29.10;1.40
18392;DHT22;9322;50.932;5.318;2023-08-21T06:47:31;30.30;1.40
18392;DHT22;9322;50.932;5.318;2023-08-21T06:49:56;30.40;1.40
18392;DHT22;9322;50.932;5.318;2023-08-21T06:52:22;30.60;1.40
18392;DHT22;9322;50.932;5.318;2023-08-21T06:54:48;31.20;1.40
18392;DHT22;9322;50.932;5.318;2023-08-21T06:57:13;32.30;1.40
18392;DHT22;9322;50.932;5.318;2023-08-21T06:59:39;31.60;1.40
18392;DHT22;9322;50.932;5.318;2023-08-21T07:02:06;31.60;1.40
18392;DHT22;9322;50.932;5.318;2023-08-21T07:04:31;32.10;1.40
18392;DHT22;9322;50.932;5.318;2023-08-21T07:06:59;31.70;1.40
18392;DHT22;9322;50.932;5.318;2023-08-21T07:09:24;31.90;1.40
18392;DHT22;9322;50.932;5.318;2023-08-21T07:11:50;31.50;1.40
18392;DHT22;9322;50.932;5.318;2023-08-21T07:14:16;31.90;1.40
18392;DHT22;9322;50.932;5.318;2023-08-21T07:16:43;31.90;1.40
18392;DHT22;9322;50.932;5.318;2023-08-21T07:19:08;32.50;1.40
18392;DHT22;9322;50.932;5.318;2023-08-21T07:21:34;33.00;1.40
18392;DHT22;9322;50.932;5.318;2023-08-21T07:24:04;33.50;1.40
18392;DHT22;9322;50.932;5.318;2023-08-21T07:26:30;34.30;1.40
18392;DHT22;9322;50.932;5.318;2023-08-21T07:28:56;34.40;1.40
18392;DHT22;9322;50.932;5.318;2023-08-21T07:31:22;35.30;1.40
18392;DHT22;9322;50.932;5.318;2023-08-21T07:33:48;34.80;1.40
18392;DHT22;9322;50.932;5.318;2023-08-21T07:36:14;33.70;1.40
18392;DHT22;9322;50.932;5.318;2023-08-21T07:38:45;32.90;1.40
18392;DHT22;9322;50.932;5.318;2023-08-21T07:41:12;33.40;1.40
18392;DHT22;9322;50.932;5.318;2023-08-21T07:43:42;34.40;1.40
18392;DHT22;9322;50.932;5.318;2023-08-21T07:46:09;34.30;1.40
18392;DHT22;9322;50.932;5.318;2023-08-21T07:48:38;35.00;1.40
18392;DHT22;9322;50.932;5.318;2023-08-21T07:51:03;35.20;1.40
18392;DHT22;9322;50.932;5.318;2023-08-21T07:53:29;34.30;1.40
18392;DHT22;9322;50.932;5.318;2023-08-21T07:55:57;34.40;1.40
18392;DHT22;9322;50.932;5.318;2023-08-21T07:58:23;34.50;1.40
18392;DHT22;9322;50.932;5.318;2023-08-21T08:00:49;35.20;1.40
18392;DHT22;9322;50.932;5.318;2023-08-21T08:03:14;36.10;1.40
18392;DHT22;9322;50.932;5.318;2023-08-21T08:05:41;36.30;1.40
18392;DHT22;9322;50.932;5.318;2023-08-21T08:08:11;36.90;1.40
18392;DHT22;9322;50.932;5.318;2023-08-21T08:10:40;37.40;1.40
18392;DHT22;9322;50.932;5.318;2023-08-21T08:13:06;38.00;1.40
18392;DHT22;9322;50.932;5.318;2023-08-21T08:15:33;38.50;1.40
18392;DHT22;9322;50.932;5.318;2023-08-21T08:18:01;37.90;1.40
18392;DHT22;9322;50.932;5.318;2023-08-21T08:20:27;37.90;1.40
18392;DHT22;9322;50.932;5.318;2023-08-21T08:22:52;37.60;1.40
18392;DHT22;9322;50.932;5.318;2023-08-21T08:25:18;38.40;1.40
18392;DHT22;9322;50.932;5.318;2023-08-21T08:27:44;37.80;1.40
18392;DHT22;9322;50.932;5.318;2023-08-21T08:30:10;38.10;1.40
18392;DHT22;9322;50.932;5.318;2023-08-21T08:32:36;38.90;1.40
18392;DHT22;9322;50.932;5.318;2023-08-21T08:35:02;39.50;1.40
18392;DHT22;9322;50.932;5.318;2023-08-21T08:37:28;39.50;1.40
18392;DHT22;9322;50.932;5.318;2023-08-21T08:39:53;39.60;1.40
18392;DHT22;9322;50.932;5.318;2023-08-21T08:42:19;38.10;1.40
18392;DHT22;9322;50.932;5.318;2023-08-21T08:44:45;38.20;1.40
18392;DHT22;9322;50.932;5.318;2023-08-21T08:47:12;38.50;1.40
18392;DHT22;9322;50.932;5.318;2023-08-21T08:49:39;39.70;1.40
18392;DHT22;9322;50.932;5.318;2023-08-21T08:52:04;39.00;1.40
18392;DHT22;9322;50.932;5.318;2023-08-21T08:54:31;39.90;1.40
18392;DHT22;9322;50.932;5.318;2023-08-21T08:56:57;39.60;1.40
18392;DHT22;9322;50.932;5.318;2023-08-21T08:59:23;40.10;1.40
18392;DHT22;9322;50.932;5.318;2023-08-21T09:01:49;40.20;1.40
18392;DHT22;9322;50.932;5.318;2023-08-21T09:04:15;39.80;1.40
18392;DHT22;9322;50.932;5.318;2023-08-21T09:06:41;40.40;1.40
18392;DHT22;9322;50.932;5.318;2023-08-21T09:09:07;39.90;1.40
18392;DHT22;9322;50.932;5.318;2023-08-21T09:11:33;39.60;1.40
18392;DHT22;9322;50.932;5.318;2023-08-21T09:14:00;40.60;1.40
18392;DHT22;9322;50.932;5.318;2023-08-21T09:16:25;39.60;1.40
18392;DHT22;9322;50.932;5.318;2023-08-21T09:18:56;39.40;1.40
18392;DHT22;9322;50.932;5.318;2023-08-21T09:21:23;40.40;1.40
18392;DHT22;9322;50.932;5.318;2023-08-21T09:24:04;40.40;1.40
18392;DHT22;9322;50.932;5.318;2023-08-21T09:26:31;40.10;1.40
18392;DHT22;9322;50.932;5.318;2023-08-21T09:29:02;40.10;1.40
18392;DHT22;9322;50.932;5.318;2023-08-21T09:31:31;40.10;1.40
18392;DHT22;9322;50.932;5.318;2023-08-21T09:33:58;39.90;1.40
18392;DHT22;9322;50.932;5.318;2023-08-21T09:36:26;40.10;1.40
18392;DHT22;9322;50.932;5.318;2023-08-21T09:38:52;39.80;1.40
18392;DHT22;9322;50.932;5.318;2023-08-21T09:41:21;39.10;1.40
18392;DHT22;9322;50.932;5.318;2023-08-21T09:43:47;39.10;1.40
18392;DHT22;9322;50.932;5.318;2023-08-21T09:46:17;39.80;1.40
18392;DHT22;9322;50.932;5.318;2023-08-21T09:48:49;40.10;1.40
18392;DHT22;9322;50.932;5.318;2023-08-21T09:51:17;39.90;1.40
18392;DHT22;9322;50.932;5.318;2023-08-21T09:53:43;39.70;1.40
18392;DHT22;9322;50.932;5.318;2023-08-21T09:56:08;40.20;1.40
18392;DHT22;9322;50.932;5.318;2023-08-21T09:58:35;41.10;1.40
18392;DHT22;9322;50.932;5.318;2023-08-21T10:01:04;40.30;1.40
18392;DHT22;9322;50.932;5.318;2023-08-21T10:03:38;40.70;1.40
18392;DHT22;9322;50.932;5.318;2023-08-21T10:06:07;40.50;1.40
18392;DHT22;9322;50.932;5.318;2023-08-21T10:08:37;41.00;1.40
18392;DHT22;9322;50.932;5.318;2023-08-21T10:11:09;42.40;1.40
18392;DHT22;9322;50.932;5.318;2023-08-21T10:13:37;42.90;1.40
18392;DHT22;9322;50.932;5.318;2023-08-21T10:16:04;42.80;1.40
18392;DHT22;9322;50.932;5.318;2023-08-21T10:18:37;42.80;1.40
18392;DHT22;9322;50.932;5.318;2023-08-21T10:21:16;42.30;1.40
18392;DHT22;9322;50.932;5.318;2023-08-21T10:23:42;41.70;1.40
18392;DHT22;9322;50.932;5.318;2023-08-21T10:26:11;40.90;1.40
18392;DHT22;9322;50.932;5.318;2023-08-21T10:28:52;38.90;1.40
18392;DHT22;9322;50.932;5.318;2023-08-21T10:31:38;39.70;1.40
18392;DHT22;9322;50.932;5.318;2023-08-21T10:34:09;41.30;1.40
18392;DHT22;9322;50.932;5.318;2023-08-21T10:39:26;42.30;1.40
18392;DHT22;9322;50.932;5.318;2023-08-21T10:42:02;42.60;1.40
18392;DHT22;9322;50.932;5.318;2023-08-21T10:47:31;42.00;1.40
18392;DHT22;9322;50.932;5.318;2023-08-21T10:50:05;40.40;1.40
18392;DHT22;9322;50.932;5.318;2023-08-21T10:55:01;39.30;1.40
18392;DHT22;9322;50.932;5.318;2023-08-21T10:57:30;40.80;1.40
18392;DHT22;9322;50.932;5.318;2023-08-21T11:02:27;42.20;1.40
18392;DHT22;9322;50.932;5.318;2023-08-21T11:04:56;43.30;1.40
18392;DHT22;9322;50.932;5.318;2023-08-21T11:07:23;43.90;1.40
18392;DHT22;9322;50.932;5.318;2023-08-21T11:09:49;42.50;1.40
18392;DHT22;9322;50.932;5.318;2023-08-21T11:12:17;42.70;1.40
18392;DHT22;9322;50.932;5.318;2023-08-21T11:14:44;42.40;1.40
18392;DHT22;9322;50.932;5.318;2023-08-21T11:17:10;42.30;1.40
18392;DHT22;9322;50.932;5.318;2023-08-21T11:19:37;42.50;1.40
18392;DHT22;9322;50.932;5.318;2023-08-21T11:22:03;42.50;1.40
18392;DHT22;9322;50.932;5.318;2023-08-21T11:24:42;40.80;1.40
18392;DHT22;9322;50.932;5.318;2023-08-21T11:27:09;41.30;1.40
18392;DHT22;9322;50.932;5.318;2023-08-21T11:29:45;43.10;1.40
18392;DHT22;9322;50.932;5.318;2023-08-21T11:32:22;43.40;1.40
18392;DHT22;9322;50.932;5.318;2023-08-21T11:34:53;44.00;1.40
18392;DHT22;9322;50.932;5.318;2023-08-21T11:37:21;44.20;1.40
18392;DHT22;9322;50.932;5.318;2023-08-21T11:39:48;44.60;1.40
18392;DHT22;9322;50.932;5.318;2023-08-21T11:42:14;43.90;1.40
18392;DHT22;9322;50.932;5.318;2023-08-21T11:45:00;41.90;1.40
18392;DHT22;9322;50.932;5.318;2023-08-21T11:47:34;39.50;1.40
18392;DHT22;9322;50.932;5.318;2023-08-21T11:50:04;37.50;1.40
18392;DHT22;9322;50.932;5.318;2023-08-21T11:52:31;36.90;1.40
18392;DHT22;9322;50.932;5.318;2023-08-21T11:55:08;35.50;1.40
18392;DHT22;9322;50.932;5.318;2023-08-21T11:57:34;35.30;1.40
18392;DHT22;9322;50.932;5.318;2023-08-21T12:00:00;35.20;1.40
18392;DHT22;9322;50.932;5.318;2023-08-21T12:02:27;36.00;1.40
18392;DHT22;9322;50.932;5.318;2023-08-21T12:05:06;37.80;1.40
18392;DHT22;9322;50.932;5.318;2023-08-21T12:07:32;38.90;1.40
18392;DHT22;9322;50.932;5.318;2023-08-21T12:09:58;40.20;1.40
18392;DHT22;9322;50.932;5.318;2023-08-21T12:12:24;39.30;1.40
18392;DHT22;9322;50.932;5.318;2023-08-21T12:14:50;39.30;1.40
18392;DHT22;9322;50.932;5.318;2023-08-21T12:17:15;39.40;1.40
18392;DHT22;9322;50.932;5.318;2023-08-21T12:19:41;39.10;1.40
18392;DHT22;9322;50.932;5.318;2023-08-21T12:22:10;38.80;1.40
18392;DHT22;9322;50.932;5.318;2023-08-21T12:24:35;38.00;1.40
18392;DHT22;9322;50.932;5.318;2023-08-21T12:27:05;37.20;1.40
18392;DHT22;9322;50.932;5.318;2023-08-21T12:29:31;37.10;1.40
18392;DHT22;9322;50.932;5.318;2023-08-21T12:31:57;36.50;1.40
18392;DHT22;9322;50.932;5.318;2023-08-21T12:34:22;35.80;1.40
18392;DHT22;9322;50.932;5.318;2023-08-21T12:36:50;35.00;1.40
18392;DHT22;9322;50.932;5.318;2023-08-21T12:39:16;35.00;1.40
18392;DHT22;9322;50.932;5.318;2023-08-21T12:41:42;35.00;1.40
18392;DHT22;9322;50.932;5.318;2023-08-21T12:44:08;35.00;1.40
18392;DHT22;9322;50.932;5.318;2023-08-21T12:46:35;34.50;1.40
18392;DHT22;9322;50.932;5.318;2023-08-21T12:49:01;34.10;1.40
18392;DHT22;9322;50.932;5.318;2023-08-21T12:51:28;33.60;1.40
18392;DHT22;9322;50.932;5.318;2023-08-21T12:53:54;33.50;1.40
18392;DHT22;9322;50.932;5.318;2023-08-21T12:56:20;33.40;1.40
18392;DHT22;9322;50.932;5.318;2023-08-21T12:58:46;33.70;1.40
18392;DHT22;9322;50.932;5.318;2023-08-21T13:01:12;33.30;1.40
18392;DHT22;9322;50.932;5.318;2023-08-21T13:03:38;33.50;1.40
18392;DHT22;9322;50.932;5.318;2023-08-21T13:06:04;33.20;1.40
18392;DHT22;9322;50.932;5.318;2023-08-21T13:08:30;33.10;1.40
18392;DHT22;9322;50.932;5.318;2023-08-21T13:10:55;32.90;1.40
18392;DHT22;9322;50.932;5.318;2023-08-21T13:13:21;32.60;1.40
18392;DHT22;9322;50.932;5.318;2023-08-21T13:15:47;32.40;1.40
18392;DHT22;9322;50.932;5.318;2023-08-21T13:18:13;32.10;1.40
18392;DHT22;9322;50.932;5.318;2023-08-21T13:20:42;32.00;1.40
18392;DHT22;9322;50.932;5.318;2023-08-21T13:23:08;31.80;1.40
18392;DHT22;9322;50.932;5.318;2023-08-21T13:25:34;31.70;1.40
18392;DHT22;9322;50.932;5.318;2023-08-21T13:28:00;31.60;1.40
18392;DHT22;9322;50.932;5.318;2023-08-21T13:30:27;31.60;1.40
18392;DHT22;9322;50.932;5.318;2023-08-21T13:32:52;31.00;1.40
18392;DHT22;9322;50.932;5.318;2023-08-21T13:35:19;31.20;1.40
18392;DHT22;9322;50.932;5.318;2023-08-21T13:37:46;31.10;1.40
18392;DHT22;9322;50.932;5.318;2023-08-21T13:40:12;30.80;1.40
18392;DHT22;9322;50.932;5.318;2023-08-21T13:42:43;31.00;1.40
18392;DHT22;9322;50.932;5.318;2023-08-21T13:45:10;31.20;1.40
18392;DHT22;9322;50.932;5.318;2023-08-21T13:47:38;31.20;1.40
18392;DHT22;9322;50.932;5.318;2023-08-21T13:50:05;31.40;1.40
18392;DHT22;9322;50.932;5.318;2023-08-21T13:52:31;31.60;1.40
18392;DHT22;9322;50.932;5.318;2023-08-21T13:54:58;31.30;1.40
18392;DHT22;9322;50.932;5.318;2023-08-21T13:57:24;31.30;1.40
18392;DHT22;9322;50.932;5.318;2023-08-21T13:59:50;30.90;1.40
18392;DHT22;9322;50.932;5.318;2023-08-21T14:02:15;30.70;1.40
18392;DHT22;9322;50.932;5.318;2023-08-21T14:04:41;30.60;1.40
18392;DHT22;9322;50.932;5.318;2023-08-21T14:07:07;30.60;1.40
18392;DHT22;9322;50.932;5.318;2023-08-21T14:09:32;30.60;1.40
18392;DHT22;9322;50.932;5.318;2023-08-21T14:11:58;30.60;1.40
18392;DHT22;9322;50.932;5.318;2023-08-21T14:14:24;30.60;1.40
18392;DHT22;9322;50.932;5.318;2023-08-21T14:16:49;30.70;1.40
18392;DHT22;9322;50.932;5.318;2023-08-21T14:19:15;30.90;1.40
18392;DHT22;9322;50.932;5.318;2023-08-21T14:21:40;31.00;1.40
18392;DHT22;9322;50.932;5.318;2023-08-21T14:24:06;31.30;1.40
18392;DHT22;9322;50.932;5.318;2023-08-21T14:26:33;31.30;1.40
18392;DHT22;9322;50.932;5.318;2023-08-21T14:28:58;31.30;1.40
18392;DHT22;9322;50.932;5.318;2023-08-21T14:31:24;31.30;1.40
18392;DHT22;9322;50.932;5.318;2023-08-21T14:33:50;31.10;1.40
18392;DHT22;9322;50.932;5.318;2023-08-21T14:36:15;30.60;1.40
18392;DHT22;9322;50.932;5.318;2023-08-21T14:38:41;30.40;1.40
18392;DHT22;9322;50.932;5.318;2023-08-21T14:41:07;30.50;1.40
18392;DHT22;9322;50.932;5.318;2023-08-21T14:43:32;30.60;1.40
18392;DHT22;9322;50.932;5.318;2023-08-21T14:45:58;30.30;1.40
18392;DHT22;9322;50.932;5.318;2023-08-21T14:48:24;30.00;1.40
18392;DHT22;9322;50.932;5.318;2023-08-21T14:50:50;30.00;1.40
18392;DHT22;9322;50.932;5.318;2023-08-21T14:53:15;30.00;1.40
18392;DHT22;9322;50.932;5.318;2023-08-21T14:55:41;29.80;1.40
18392;DHT22;9322;50.932;5.318;2023-08-21T14:58:07;30.00;1.40
18392;DHT22;9322;50.932;5.318;2023-08-21T15:00:35;29.90;1.40
18392;DHT22;9322;50.932;5.318;2023-08-21T15:03:00;29.90;1.40
18392;DHT22;9322;50.932;5.318;2023-08-21T15:05:27;30.10;1.40
18392;DHT22;9322;50.932;5.318;2023-08-21T15:07:53;30.00;1.40
18392;DHT22;9322;50.932;5.318;2023-08-21T15:10:20;29.80;1.40
18392;DHT22;9322;50.932;5.318;2023-08-21T15:12:46;29.90;1.40
18392;DHT22;9322;50.932;5.318;2023-08-21T15:15:12;29.80;1.40
18392;DHT22;9322;50.932;5.318;2023-08-21T15:17:38;29.60;1.40
18392;DHT22;9322;50.932;5.318;2023-08-21T15:20:04;29.30;1.40
18392;DHT22;9322;50.932;5.318;2023-08-21T15:22:33;29.50;1.40
18392;DHT22;9322;50.932;5.318;2023-08-21T15:24:59;29.60;1.40
18392;DHT22;9322;50.932;5.318;2023-08-21T15:27:24;29.70;1.40
18392;DHT22;9322;50.932;5.318;2023-08-21T15:29:50;29.70;1.40
18392;DHT22;9322;50.932;5.318;2023-08-21T15:32:16;29.80;1.40
18392;DHT22;9322;50.932;5.318;2023-08-21T15:34:42;29.70;1.40
18392;DHT22;9322;50.932;5.318;2023-08-21T15:37:08;29.60;1.40
18392;DHT22;9322;50.932;5.318;2023-08-21T15:39:34;29.70;1.40
18392;DHT22;9322;50.932;5.318;2023-08-21T15:42:00;29.50;1.40
18392;DHT22;9322;50.932;5.318;2023-08-21T15:44:25;29.50;1.40
18392;DHT22;9322;50.932;5.318;2023-08-21T15:46:51;29.50;1.40
18392;DHT22;9322;50.932;5.318;2023-08-21T15:49:16;29.40;1.40
18392;DHT22;9322;50.932;5.318;2023-08-21T15:51:45;29.40;1.40
18392;DHT22;9322;50.932;5.318;2023-08-21T15:54:14;29.30;1.40
18392;DHT22;9322;50.932;5.318;2023-08-21T15:56:39;29.20;1.40
18392;DHT22;9322;50.932;5.318;2023-08-21T15:59:05;29.30;1.40
18392;DHT22;9322;50.932;5.318;2023-08-21T16:01:31;29.30;1.40
18392;DHT22;9322;50.932;5.318;2023-08-21T16:03:56;29.10;1.40
18392;DHT22;9322;50.932;5.318;2023-08-21T16:06:22;28.80;1.40
18392;DHT22;9322;50.932;5.318;2023-08-21T16:08:48;28.90;1.40
18392;DHT22;9322;50.932;5.318;2023-08-21T16:11:13;28.90;1.40
18392;DHT22;9322;50.932;5.318;2023-08-21T16:13:39;28.80;1.40